createdAt,value
2023-02-18T07:39:45.597Z,99.90
2023-02-18T07:55:56.181Z,99.90
2023-02-18T08:10:08.960Z,99.90
2023-02-18T08:23:05.772Z,99.90
2023-02-18T08:35:14.424Z,99.90
2023-02-18T08:46:50.140Z,99.90
2023-02-18T08:51:44.028Z,99.90
2023-02-18T09:02:32.156Z,99.90
2023-02-18T09:12:34.713Z,99.90
2023-02-18T09:17:28.366Z,99.90
2023-02-18T09:22:22.258Z,99.90
2023-02-18T09:27:15.804Z,99.90
2023-02-18T09:32:14.522Z,99.90
2023-02-18T09:37:14.847Z,99.90
2023-02-18T09:42:12.949Z,99.90
2023-02-18T09:47:11.980Z,99.90
2023-02-18T09:52:17.870Z,99.90
2023-02-18T09:57:23.501Z,99.90
2023-02-18T10:02:20.115Z,99.90
2023-02-18T10:07:22.436Z,99.90
2023-02-18T10:12:19.885Z,98.30
2023-02-18T10:17:16.585Z,97.30
2023-02-18T10:22:15.001Z,96.80
2023-02-18T10:27:11.338Z,95.80
2023-02-18T10:32:14.080Z,95.80
2023-02-18T10:37:22.716Z,95.40
2023-02-18T10:42:29.333Z,94.20
2023-02-18T10:47:35.827Z,93.00
2023-02-18T10:52:35.085Z,92.20
2023-02-18T10:57:30.232Z,91.90
2023-02-18T11:02:27.202Z,90.90
2023-02-18T11:07:24.067Z,90.00
2023-02-18T11:12:23.228Z,89.20
2023-02-18T11:17:22.204Z,89.30
2023-02-18T11:22:20.447Z,89.20
2023-02-18T11:27:23.063Z,88.40
2023-02-18T11:32:17.285Z,88.20
2023-02-18T11:37:14.681Z,87.00
2023-02-18T11:42:08.601Z,87.20
2023-02-18T11:47:07.470Z,88.80
2023-02-18T11:52:19.585Z,91.10
2023-02-18T11:57:15.805Z,91.30
2023-02-18T12:02:29.474Z,91.50
2023-02-18T12:07:28.487Z,92.00
2023-02-18T12:12:29.057Z,91.90
2023-02-18T12:17:47.330Z,90.50
2023-02-18T12:22:46.704Z,87.80
2023-02-18T12:27:51.710Z,86.80
2023-02-18T12:32:53.613Z,86.80
2023-02-18T12:38:02.273Z,85.40
2023-02-18T12:43:01.610Z,86.90
2023-02-18T12:48:16.935Z,86.30
2023-02-18T12:53:50.283Z,84.50
2023-02-18T12:58:57.567Z,83.30
2023-02-18T13:04:24.702Z,83.40
2023-02-18T13:09:29.666Z,83.70
2023-02-18T13:14:28.655Z,84.00
2023-02-18T13:19:25.754Z,84.50
2023-02-18T13:24:26.275Z,84.10
2023-02-18T13:29:27.864Z,84.10
2023-02-18T13:34:28.948Z,84.70
2023-02-18T13:39:25.248Z,83.30
2023-02-18T13:45:06.357Z,80.30
2023-02-18T13:50:15.299Z,72.40
2023-02-18T13:55:20.690Z,70.10
2023-02-18T14:00:22.435Z,69.10
2023-02-18T14:05:25.351Z,66.40
2023-02-18T14:10:33.731Z,59.60
2023-02-18T14:16:02.105Z,55.60
2023-02-18T14:21:07.184Z,53.60
2023-02-18T14:26:07.944Z,50.60
2023-02-18T14:31:04.428Z,48.90
2023-02-18T14:36:08.029Z,46.30
2023-02-18T14:41:37.240Z,46.40
2023-02-18T14:46:41.090Z,48.30
2023-02-18T14:51:37.454Z,47.70
2023-02-18T14:56:31.255Z,45.70
2023-02-18T15:01:26.766Z,45.00
2023-02-18T15:06:25.457Z,44.40
2023-02-18T15:11:22.964Z,43.10
2023-02-18T15:16:21.560Z,44.90
2023-02-18T15:21:22.915Z,48.60
2023-02-18T15:26:19.730Z,51.60
2023-02-18T15:31:15.613Z,53.40
2023-02-18T15:36:16.895Z,57.80
2023-02-18T15:41:15.777Z,61.10
2023-02-18T15:46:16.198Z,65.00
2023-02-18T15:51:17.774Z,67.60
2023-02-18T15:56:16.687Z,68.90
2023-02-18T16:06:33.107Z,69.70
2023-02-18T16:11:28.557Z,73.60
2023-02-18T16:16:26.908Z,76.00
2023-02-18T16:21:35.247Z,78.00
2023-02-18T16:26:42.378Z,79.40
2023-02-18T16:31:36.264Z,81.50
2023-02-18T16:36:30.511Z,84.10
2023-02-18T16:41:26.397Z,86.30
2023-02-18T16:46:23.690Z,88.20
